sensor_id;sensor_type;location;lat;lon;timestamp;P1;durP1;ratioP1;P2;durP2;ratioP2
77326;SDS011;66399;52.322;20.980;2023-05-07T00:03:20;3.50;;;1.90;;
77326;SDS011;66399;52.322;20.980;2023-05-07T00:07:25;4.60;;;2.00;;
77326;SDS011;66399;52.322;20.980;2023-05-07T00:11:30;4.60;;;2.10;;
77326;SDS011;66399;52.322;20.980;2023-05-07T00:15:37;5.70;;;1.90;;
77326;SDS011;66399;52.322;20.980;2023-05-07T00:19:42;5.00;;;2.30;;
77326;SDS011;66399;52.322;20.980;2023-05-07T00:23:50;3.80;;;1.70;;
77326;SDS011;66399;52.322;20.980;2023-05-07T00:27:55;4.00;;;2.00;;
77326;SDS011;66399;52.322;20.980;2023-05-07T00:36:05;4.40;;;1.70;;
77326;SDS011;66399;52.322;20.980;2023-05-07T00:40:10;4.20;;;2.10;;
77326;SDS011;66399;52.322;20.980;2023-05-07T00:44:16;4.00;;;1.80;;
77326;SDS011;66399;52.322;20.980;2023-05-07T00:52:25;3.40;;;1.70;;
77326;SDS011;66399;52.322;20.980;2023-05-07T01:00:34;2.10;;;1.10;;
77326;SDS011;66399;52.322;20.980;2023-05-07T01:04:40;4.20;;;1.70;;
77326;SDS011;66399;52.322;20.980;2023-05-07T01:08:45;3.10;;;1.70;;
77326;SDS011;66399;52.322;20.980;2023-05-07T01:12:51;4.50;;;2.20;;
77326;SDS011;66399;52.322;20.980;2023-05-07T01:21:00;3.00;;;1.40;;
77326;SDS011;66399;52.322;20.980;2023-05-07T01:25:07;4.60;;;1.80;;
77326;SDS011;66399;52.322;20.980;2023-05-07T01:29:12;3.70;;;1.50;;
77326;SDS011;66399;52.322;20.980;2023-05-07T01:33:18;4.00;;;1.50;;
77326;SDS011;66399;52.322;20.980;2023-05-07T01:37:24;2.90;;;1.50;;
77326;SDS011;66399;52.322;20.980;2023-05-07T01:41:29;5.30;;;1.70;;
77326;SDS011;66399;52.322;20.980;2023-05-07T01:45:34;4.60;;;1.80;;
77326;SDS011;66399;52.322;20.980;2023-05-07T01:49:40;3.10;;;1.70;;
77326;SDS011;66399;52.322;20.980;2023-05-07T01:53:45;2.80;;;1.50;;
77326;SDS011;66399;52.322;20.980;2023-05-07T01:57:54;3.30;;;1.50;;
77326;SDS011;66399;52.322;20.980;2023-05-07T02:01:59;3.50;;;1.30;;
77326;SDS011;66399;52.322;20.980;2023-05-07T02:06:05;3.40;;;1.60;;
77326;SDS011;66399;52.322;20.980;2023-05-07T02:10:10;3.50;;;1.40;;
77326;SDS011;66399;52.322;20.980;2023-05-07T02:18:20;4.10;;;1.40;;
77326;SDS011;66399;52.322;20.980;2023-05-07T02:22:25;2.50;;;1.40;;
77326;SDS011;66399;52.322;20.980;2023-05-07T02:26:30;2.80;;;1.30;;
77326;SDS011;66399;52.322;20.980;2023-05-07T02:30:36;1.30;;;0.90;;
77326;SDS011;66399;52.322;20.980;2023-05-07T02:34:41;2.80;;;1.20;;
77326;SDS011;66399;52.322;20.980;2023-05-07T02:38:46;2.60;;;1.20;;
77326;SDS011;66399;52.322;20.980;2023-05-07T02:42:51;3.10;;;1.50;;
77326;SDS011;66399;52.322;20.980;2023-05-07T02:46:56;2.40;;;1.40;;
77326;SDS011;66399;52.322;20.980;2023-05-07T02:51:02;1.90;;;1.30;;
77326;SDS011;66399;52.322;20.980;2023-05-07T02:55:07;1.90;;;1.20;;
77326;SDS011;66399;52.322;20.980;2023-05-07T02:59:13;2.20;;;1.20;;
77326;SDS011;66399;52.322;20.980;2023-05-07T03:03:18;2.50;;;1.30;;
77326;SDS011;66399;52.322;20.980;2023-05-07T03:07:23;2.80;;;1.40;;
77326;SDS011;66399;52.322;20.980;2023-05-07T03:11:28;3.00;;;1.50;;
77326;SDS011;66399;52.322;20.980;2023-05-07T03:15:33;2.60;;;1.40;;
77326;SDS011;66399;52.322;20.980;2023-05-07T03:23:42;4.00;;;1.40;;
77326;SDS011;66399;52.322;20.980;2023-05-07T03:27:47;3.60;;;1.50;;
77326;SDS011;66399;52.322;20.980;2023-05-07T03:31:52;3.30;;;1.40;;
77326;SDS011;66399;52.322;20.980;2023-05-07T03:35:57;3.60;;;1.80;;
77326;SDS011;66399;52.322;20.980;2023-05-07T03:40:03;2.50;;;1.40;;
77326;SDS011;66399;52.322;20.980;2023-05-07T03:44:09;2.00;;;1.20;;
77326;SDS011;66399;52.322;20.980;2023-05-07T03:48:14;3.00;;;1.40;;
77326;SDS011;66399;52.322;20.980;2023-05-07T03:52:19;2.60;;;1.50;;
77326;SDS011;66399;52.322;20.980;2023-05-07T03:56:27;2.70;;;1.20;;
77326;SDS011;66399;52.322;20.980;2023-05-07T04:00:32;3.60;;;1.40;;
77326;SDS011;66399;52.322;20.980;2023-05-07T04:04:41;2.90;;;1.50;;
77326;SDS011;66399;52.322;20.980;2023-05-07T04:08:47;3.00;;;1.50;;
77326;SDS011;66399;52.322;20.980;2023-05-07T04:12:52;2.00;;;1.10;;
77326;SDS011;66399;52.322;20.980;2023-05-07T04:16:57;3.50;;;1.50;;
77326;SDS011;66399;52.322;20.980;2023-05-07T04:21:02;3.90;;;1.20;;
77326;SDS011;66399;52.322;20.980;2023-05-07T04:25:08;2.40;;;1.30;;
77326;SDS011;66399;52.322;20.980;2023-05-07T04:29:14;5.20;;;1.50;;
77326;SDS011;66399;52.322;20.980;2023-05-07T04:33:19;2.50;;;1.40;;
77326;SDS011;66399;52.322;20.980;2023-05-07T04:37:25;6.50;;;1.60;;
77326;SDS011;66399;52.322;20.980;2023-05-07T04:41:30;2.90;;;1.40;;
77326;SDS011;66399;52.322;20.980;2023-05-07T04:45:36;3.10;;;1.10;;
77326;SDS011;66399;52.322;20.980;2023-05-07T04:49:44;3.80;;;1.50;;
77326;SDS011;66399;52.322;20.980;2023-05-07T04:53:49;2.40;;;1.40;;
77326;SDS011;66399;52.322;20.980;2023-05-07T04:57:55;2.10;;;1.30;;
77326;SDS011;66399;52.322;20.980;2023-05-07T05:02:00;3.50;;;1.40;;
77326;SDS011;66399;52.322;20.980;2023-05-07T05:06:05;3.50;;;1.80;;
77326;SDS011;66399;52.322;20.980;2023-05-07T05:10:10;2.50;;;1.20;;
77326;SDS011;66399;52.322;20.980;2023-05-07T05:14:16;2.60;;;1.30;;
77326;SDS011;66399;52.322;20.980;2023-05-07T05:18:21;2.40;;;1.60;;
77326;SDS011;66399;52.322;20.980;2023-05-07T05:22:26;2.90;;;1.20;;
77326;SDS011;66399;52.322;20.980;2023-05-07T05:26:33;2.80;;;1.40;;
77326;SDS011;66399;52.322;20.980;2023-05-07T05:30:38;3.80;;;1.30;;
77326;SDS011;66399;52.322;20.980;2023-05-07T05:34:44;3.60;;;1.50;;
77326;SDS011;66399;52.322;20.980;2023-05-07T05:38:49;2.00;;;1.20;;
77326;SDS011;66399;52.322;20.980;2023-05-07T05:42:54;3.20;;;1.40;;
77326;SDS011;66399;52.322;20.980;2023-05-07T05:46:59;2.10;;;1.10;;
77326;SDS011;66399;52.322;20.980;2023-05-07T05:51:04;3.60;;;1.60;;
77326;SDS011;66399;52.322;20.980;2023-05-07T05:55:10;3.60;;;1.40;;
77326;SDS011;66399;52.322;20.980;2023-05-07T05:59:15;3.50;;;1.50;;
77326;SDS011;66399;52.322;20.980;2023-05-07T06:03:20;4.10;;;1.60;;
77326;SDS011;66399;52.322;20.980;2023-05-07T06:07:26;3.10;;;1.30;;
77326;SDS011;66399;52.322;20.980;2023-05-07T06:11:31;2.40;;;1.30;;
77326;SDS011;66399;52.322;20.980;2023-05-07T06:15:36;2.30;;;1.30;;
77326;SDS011;66399;52.322;20.980;2023-05-07T06:19:41;3.40;;;1.20;;
77326;SDS011;66399;52.322;20.980;2023-05-07T06:23:46;3.40;;;1.30;;
77326;SDS011;66399;52.322;20.980;2023-05-07T06:27:51;4.10;;;1.90;;
77326;SDS011;66399;52.322;20.980;2023-05-07T06:31:56;2.70;;;1.30;;
77326;SDS011;66399;52.322;20.980;2023-05-07T06:36:01;4.10;;;1.50;;
77326;SDS011;66399;52.322;20.980;2023-05-07T06:40:08;2.70;;;1.50;;
77326;SDS011;66399;52.322;20.980;2023-05-07T06:44:13;4.10;;;1.40;;
77326;SDS011;66399;52.322;20.980;2023-05-07T06:52:22;3.20;;;1.40;;
77326;SDS011;66399;52.322;20.980;2023-05-07T06:56:27;2.50;;;1.20;;
77326;SDS011;66399;52.322;20.980;2023-05-07T07:00:32;1.60;;;0.80;;
77326;SDS011;66399;52.322;20.980;2023-05-07T07:04:37;3.10;;;1.60;;
77326;SDS011;66399;52.322;20.980;2023-05-07T07:08:42;3.00;;;1.30;;
77326;SDS011;66399;52.322;20.980;2023-05-07T07:12:48;3.50;;;1.50;;
77326;SDS011;66399;52.322;20.980;2023-05-07T07:16:53;2.60;;;1.40;;
77326;SDS011;66399;52.322;20.980;2023-05-07T07:21:01;2.90;;;1.50;;
77326;SDS011;66399;52.322;20.980;2023-05-07T07:25:07;2.70;;;1.30;;
77326;SDS011;66399;52.322;20.980;2023-05-07T07:29:13;3.00;;;1.40;;
77326;SDS011;66399;52.322;20.980;2023-05-07T07:33:19;2.30;;;1.40;;
77326;SDS011;66399;52.322;20.980;2023-05-07T07:37:24;3.40;;;1.60;;
77326;SDS011;66399;52.322;20.980;2023-05-07T07:45:32;2.30;;;1.10;;
77326;SDS011;66399;52.322;20.980;2023-05-07T07:49:40;2.90;;;1.30;;
77326;SDS011;66399;52.322;20.980;2023-05-07T07:53:45;4.10;;;1.40;;
77326;SDS011;66399;52.322;20.980;2023-05-07T07:57:51;2.60;;;1.20;;
77326;SDS011;66399;52.322;20.980;2023-05-07T08:01:56;4.40;;;1.90;;
77326;SDS011;66399;52.322;20.980;2023-05-07T08:19:26;2.90;;;1.30;;
77326;SDS011;66399;52.322;20.980;2023-05-07T08:23:31;3.40;;;1.40;;
77326;SDS011;66399;52.322;20.980;2023-05-07T08:36:52;1.90;;;1.10;;
77326;SDS011;66399;52.322;20.980;2023-05-07T08:49:55;3.50;;;1.50;;
77326;SDS011;66399;52.322;20.980;2023-05-07T08:54:12;2.50;;;1.40;;
77326;SDS011;66399;52.322;20.980;2023-05-07T08:58:20;4.10;;;1.50;;
77326;SDS011;66399;52.322;20.980;2023-05-07T09:06:38;2.00;;;1.20;;
77326;SDS011;66399;52.322;20.980;2023-05-07T09:10:46;2.90;;;1.70;;
77326;SDS011;66399;52.322;20.980;2023-05-07T09:23:35;3.10;;;1.60;;
77326;SDS011;66399;52.322;20.980;2023-05-07T09:58:59;2.90;;;1.40;;
77326;SDS011;66399;52.322;20.980;2023-05-07T10:03:05;2.60;;;1.40;;
77326;SDS011;66399;52.322;20.980;2023-05-07T10:07:18;2.80;;;1.40;;
77326;SDS011;66399;52.322;20.980;2023-05-07T10:11:24;3.70;;;1.20;;
77326;SDS011;66399;52.322;20.980;2023-05-07T10:15:32;2.80;;;1.50;;
77326;SDS011;66399;52.322;20.980;2023-05-07T10:19:37;3.10;;;1.90;;
77326;SDS011;66399;52.322;20.980;2023-05-07T10:23:42;2.10;;;1.40;;
77326;SDS011;66399;52.322;20.980;2023-05-07T10:27:49;2.50;;;1.30;;
77326;SDS011;66399;52.322;20.980;2023-05-07T10:36:09;2.90;;;1.30;;
77326;SDS011;66399;52.322;20.980;2023-05-07T10:40:14;3.30;;;1.60;;
77326;SDS011;66399;52.322;20.980;2023-05-07T10:44:29;4.30;;;1.40;;
77326;SDS011;66399;52.322;20.980;2023-05-07T10:48:50;6.90;;;2.20;;
77326;SDS011;66399;52.322;20.980;2023-05-07T10:53:23;3.40;;;1.30;;
77326;SDS011;66399;52.322;20.980;2023-05-07T10:57:37;2.60;;;1.40;;
77326;SDS011;66399;52.322;20.980;2023-05-07T11:06:34;3.30;;;1.50;;
77326;SDS011;66399;52.322;20.980;2023-05-07T11:15:08;3.90;;;1.40;;
77326;SDS011;66399;52.322;20.980;2023-05-07T11:19:14;2.30;;;1.30;;
77326;SDS011;66399;52.322;20.980;2023-05-07T11:27:36;4.10;;;1.70;;
77326;SDS011;66399;52.322;20.980;2023-05-07T11:32:00;3.40;;;1.50;;
77326;SDS011;66399;52.322;20.980;2023-05-07T11:36:07;3.30;;;1.40;;
77326;SDS011;66399;52.322;20.980;2023-05-07T11:44:44;3.50;;;1.40;;
77326;SDS011;66399;52.322;20.980;2023-05-07T11:48:50;2.50;;;1.30;;
77326;SDS011;66399;52.322;20.980;2023-05-07T11:57:15;3.70;;;1.60;;
77326;SDS011;66399;52.322;20.980;2023-05-07T12:01:20;4.10;;;1.70;;
77326;SDS011;66399;52.322;20.980;2023-05-07T12:05:32;2.60;;;1.40;;
77326;SDS011;66399;52.322;20.980;2023-05-07T12:09:37;4.70;;;1.60;;
77326;SDS011;66399;52.322;20.980;2023-05-07T12:13:42;3.20;;;1.50;;
77326;SDS011;66399;52.322;20.980;2023-05-07T12:17:58;3.50;;;1.20;;
77326;SDS011;66399;52.322;20.980;2023-05-07T12:22:03;3.20;;;1.40;;
77326;SDS011;66399;52.322;20.980;2023-05-07T12:26:09;2.20;;;1.10;;
77326;SDS011;66399;52.322;20.980;2023-05-07T12:52:28;2.40;;;1.10;;
77326;SDS011;66399;52.322;20.980;2023-05-07T12:56:36;1.80;;;0.90;;
77326;SDS011;66399;52.322;20.980;2023-05-07T13:05:35;2.90;;;1.00;;
77326;SDS011;66399;52.322;20.980;2023-05-07T13:09:48;2.50;;;1.40;;
77326;SDS011;66399;52.322;20.980;2023-05-07T13:13:56;3.10;;;1.80;;
77326;SDS011;66399;52.322;20.980;2023-05-07T13:22:26;3.10;;;1.30;;
77326;SDS011;66399;52.322;20.980;2023-05-07T13:26:31;1.40;;;1.00;;
77326;SDS011;66399;52.322;20.980;2023-05-07T13:34:51;1.40;;;0.80;;
77326;SDS011;66399;52.322;20.980;2023-05-07T13:38:56;3.10;;;1.10;;
77326;SDS011;66399;52.322;20.980;2023-05-07T13:43:12;4.60;;;1.10;;
77326;SDS011;66399;52.322;20.980;2023-05-07T13:47:18;2.50;;;1.30;;
77326;SDS011;66399;52.322;20.980;2023-05-07T13:56:10;2.50;;;1.20;;
77326;SDS011;66399;52.322;20.980;2023-05-07T14:00:15;2.50;;;1.30;;
77326;SDS011;66399;52.322;20.980;2023-05-07T14:08:36;2.50;;;1.20;;
77326;SDS011;66399;52.322;20.980;2023-05-07T14:12:41;2.80;;;1.40;;
77326;SDS011;66399;52.322;20.980;2023-05-07T14:16:47;3.10;;;1.40;;
77326;SDS011;66399;52.322;20.980;2023-05-07T14:20:53;1.90;;;1.20;;
77326;SDS011;66399;52.322;20.980;2023-05-07T14:29:19;3.50;;;1.50;;
77326;SDS011;66399;52.322;20.980;2023-05-07T14:33:27;4.50;;;1.40;;
77326;SDS011;66399;52.322;20.980;2023-05-07T14:38:00;2.20;;;1.20;;
77326;SDS011;66399;52.322;20.980;2023-05-07T14:42:05;3.20;;;1.50;;
77326;SDS011;66399;52.322;20.980;2023-05-07T14:46:15;3.00;;;1.40;;
77326;SDS011;66399;52.322;20.980;2023-05-07T14:50:20;3.40;;;2.10;;
77326;SDS011;66399;52.322;20.980;2023-05-07T14:54:34;3.20;;;1.60;;
77326;SDS011;66399;52.322;20.980;2023-05-07T14:58:42;4.00;;;1.50;;
77326;SDS011;66399;52.322;20.980;2023-05-07T15:02:47;2.70;;;1.40;;
77326;SDS011;66399;52.322;20.980;2023-05-07T15:07:12;3.90;;;1.40;;
77326;SDS011;66399;52.322;20.980;2023-05-07T15:11:32;2.60;;;1.50;;
77326;SDS011;66399;52.322;20.980;2023-05-07T15:19:56;2.20;;;1.40;;
77326;SDS011;66399;52.322;20.980;2023-05-07T15:24:01;3.50;;;1.70;;
77326;SDS011;66399;52.322;20.980;2023-05-07T15:32:24;4.20;;;1.50;;
77326;SDS011;66399;52.322;20.980;2023-05-07T15:36:30;3.10;;;1.70;;
77326;SDS011;66399;52.322;20.980;2023-05-07T15:49:18;2.90;;;1.60;;
77326;SDS011;66399;52.322;20.980;2023-05-07T15:53:23;2.90;;;1.40;;
77326;SDS011;66399;52.322;20.980;2023-05-07T15:57:31;2.50;;;1.40;;
77326;SDS011;66399;52.322;20.980;2023-05-07T16:01:36;2.30;;;1.50;;
77326;SDS011;66399;52.322;20.980;2023-05-07T16:05:44;4.30;;;1.50;;
77326;SDS011;66399;52.322;20.980;2023-05-07T16:23:05;2.80;;;1.60;;
77326;SDS011;66399;52.322;20.980;2023-05-07T16:27:10;2.20;;;1.30;;
77326;SDS011;66399;52.322;20.980;2023-05-07T16:35:29;3.10;;;1.60;;
77326;SDS011;66399;52.322;20.980;2023-05-07T16:39:35;3.50;;;1.30;;
77326;SDS011;66399;52.322;20.980;2023-05-07T16:43:47;2.10;;;1.30;;
77326;SDS011;66399;52.322;20.980;2023-05-07T16:47:52;3.40;;;1.40;;
77326;SDS011;66399;52.322;20.980;2023-05-07T16:51:59;2.00;;;1.30;;
77326;SDS011;66399;52.322;20.980;2023-05-07T16:56:10;3.00;;;1.40;;
77326;SDS011;66399;52.322;20.980;2023-05-07T17:00:16;2.30;;;1.30;;
77326;SDS011;66399;52.322;20.980;2023-05-07T17:04:21;2.80;;;1.30;;
77326;SDS011;66399;52.322;20.980;2023-05-07T17:08:33;2.20;;;1.30;;
77326;SDS011;66399;52.322;20.980;2023-05-07T17:12:38;3.80;;;1.50;;
77326;SDS011;66399;52.322;20.980;2023-05-07T17:16:43;3.00;;;1.50;;
77326;SDS011;66399;52.322;20.980;2023-05-07T17:29:07;3.20;;;1.80;;
77326;SDS011;66399;52.322;20.980;2023-05-07T17:37:30;4.00;;;1.30;;
77326;SDS011;66399;52.322;20.980;2023-05-07T17:41:36;3.10;;;1.40;;
77326;SDS011;66399;52.322;20.980;2023-05-07T17:59:28;5.70;;;2.30;;
77326;SDS011;66399;52.322;20.980;2023-05-07T18:03:33;3.30;;;2.10;;
77326;SDS011;66399;52.322;20.980;2023-05-07T18:07:40;4.10;;;2.60;;
77326;SDS011;66399;52.322;20.980;2023-05-07T18:11:45;3.90;;;2.30;;
77326;SDS011;66399;52.322;20.980;2023-05-07T18:15:50;3.20;;;1.90;;
77326;SDS011;66399;52.322;20.980;2023-05-07T18:19:55;6.80;;;3.90;;
77326;SDS011;66399;52.322;20.980;2023-05-07T18:24:00;7.80;;;3.40;;
77326;SDS011;66399;52.322;20.980;2023-05-07T18:28:05;5.20;;;2.60;;
77326;SDS011;66399;52.322;20.980;2023-05-07T18:32:10;5.30;;;2.60;;
77326;SDS011;66399;52.322;20.980;2023-05-07T18:36:16;4.70;;;1.90;;
77326;SDS011;66399;52.322;20.980;2023-05-07T18:40:21;4.00;;;2.10;;
77326;SDS011;66399;52.322;20.980;2023-05-07T18:44:26;4.10;;;2.40;;
77326;SDS011;66399;52.322;20.980;2023-05-07T18:48:34;5.30;;;2.30;;
77326;SDS011;66399;52.322;20.980;2023-05-07T18:52:39;3.60;;;1.90;;
77326;SDS011;66399;52.322;20.980;2023-05-07T18:56:44;6.80;;;2.70;;
77326;SDS011;66399;52.322;20.980;2023-05-07T19:00:49;3.10;;;1.80;;
77326;SDS011;66399;52.322;20.980;2023-05-07T19:04:55;9.50;;;3.10;;
77326;SDS011;66399;52.322;20.980;2023-05-07T19:09:00;6.60;;;2.70;;
77326;SDS011;66399;52.322;20.980;2023-05-07T19:13:05;3.40;;;1.80;;
77326;SDS011;66399;52.322;20.980;2023-05-07T19:17:10;4.70;;;2.00;;
77326;SDS011;66399;52.322;20.980;2023-05-07T19:21:15;4.50;;;1.90;;
77326;SDS011;66399;52.322;20.980;2023-05-07T19:25:21;5.50;;;2.30;;
77326;SDS011;66399;52.322;20.980;2023-05-07T19:29:26;6.50;;;3.20;;
77326;SDS011;66399;52.322;20.980;2023-05-07T19:33:31;5.00;;;2.80;;
77326;SDS011;66399;52.322;20.980;2023-05-07T19:37:36;5.70;;;2.70;;
77326;SDS011;66399;52.322;20.980;2023-05-07T19:41:41;5.30;;;2.60;;
77326;SDS011;66399;52.322;20.980;2023-05-07T19:45:46;5.40;;;2.20;;
77326;SDS011;66399;52.322;20.980;2023-05-07T19:49:52;6.90;;;2.40;;
77326;SDS011;66399;52.322;20.980;2023-05-07T19:53:57;6.00;;;2.60;;
77326;SDS011;66399;52.322;20.980;2023-05-07T19:58:03;18.30;;;8.40;;
77326;SDS011;66399;52.322;20.980;2023-05-07T20:02:08;12.40;;;6.20;;
77326;SDS011;66399;52.322;20.980;2023-05-07T20:06:14;7.90;;;4.10;;
77326;SDS011;66399;52.322;20.980;2023-05-07T20:10:20;7.70;;;3.50;;
77326;SDS011;66399;52.322;20.980;2023-05-07T20:14:25;8.30;;;3.50;;
77326;SDS011;66399;52.322;20.980;2023-05-07T20:18:30;7.10;;;3.50;;
77326;SDS011;66399;52.322;20.980;2023-05-07T20:22:35;7.30;;;3.30;;
77326;SDS011;66399;52.322;20.980;2023-05-07T20:26:40;4.30;;;2.60;;
77326;SDS011;66399;52.322;20.980;2023-05-07T20:30:45;4.90;;;2.40;;
77326;SDS011;66399;52.322;20.980;2023-05-07T20:34:50;6.10;;;2.90;;
77326;SDS011;66399;52.322;20.980;2023-05-07T20:38:55;6.10;;;2.80;;
77326;SDS011;66399;52.322;20.980;2023-05-07T20:43:00;6.10;;;3.00;;
77326;SDS011;66399;52.322;20.980;2023-05-07T20:47:06;5.80;;;1.90;;
77326;SDS011;66399;52.322;20.980;2023-05-07T20:51:11;5.40;;;2.80;;
77326;SDS011;66399;52.322;20.980;2023-05-07T20:55:18;4.90;;;2.50;;
77326;SDS011;66399;52.322;20.980;2023-05-07T20:59:24;5.10;;;2.30;;
77326;SDS011;66399;52.322;20.980;2023-05-07T21:03:29;4.90;;;2.00;;
77326;SDS011;66399;52.322;20.980;2023-05-07T21:07:34;5.60;;;2.50;;
77326;SDS011;66399;52.322;20.980;2023-05-07T21:11:39;9.30;;;4.00;;
77326;SDS011;66399;52.322;20.980;2023-05-07T21:15:44;7.10;;;3.80;;
77326;SDS011;66399;52.322;20.980;2023-05-07T21:19:49;7.40;;;3.40;;
77326;SDS011;66399;52.322;20.980;2023-05-07T21:23:55;7.30;;;4.40;;
77326;SDS011;66399;52.322;20.980;2023-05-07T21:28:00;12.90;;;6.90;;
77326;SDS011;66399;52.322;20.980;2023-05-07T21:32:08;8.30;;;4.60;;
77326;SDS011;66399;52.322;20.980;2023-05-07T21:36:13;6.80;;;3.30;;
77326;SDS011;66399;52.322;20.980;2023-05-07T21:40:18;5.10;;;2.80;;
77326;SDS011;66399;52.322;20.980;2023-05-07T21:44:24;5.20;;;2.80;;
77326;SDS011;66399;52.322;20.980;2023-05-07T21:48:32;7.40;;;3.50;;
77326;SDS011;66399;52.322;20.980;2023-05-07T21:52:37;8.20;;;3.20;;
77326;SDS011;66399;52.322;20.980;2023-05-07T21:56:42;8.30;;;3.70;;
77326;SDS011;66399;52.322;20.980;2023-05-07T22:04:51;9.70;;;4.60;;
77326;SDS011;66399;52.322;20.980;2023-05-07T22:08:56;10.10;;;4.40;;
77326;SDS011;66399;52.322;20.980;2023-05-07T22:13:02;6.40;;;3.80;;
77326;SDS011;66399;52.322;20.980;2023-05-07T22:17:07;9.80;;;4.10;;
77326;SDS011;66399;52.322;20.980;2023-05-07T22:21:12;11.10;;;4.60;;
77326;SDS011;66399;52.322;20.980;2023-05-07T22:25:18;12.60;;;5.20;;
77326;SDS011;66399;52.322;20.980;2023-05-07T22:29:24;12.60;;;5.60;;
77326;SDS011;66399;52.322;20.980;2023-05-07T22:33:29;13.00;;;5.40;;
77326;SDS011;66399;52.322;20.980;2023-05-07T22:37:34;10.90;;;4.80;;
77326;SDS011;66399;52.322;20.980;2023-05-07T22:41:39;12.10;;;5.60;;
77326;SDS011;66399;52.322;20.980;2023-05-07T22:45:44;9.70;;;5.20;;
77326;SDS011;66399;52.322;20.980;2023-05-07T22:49:50;14.80;;;6.30;;
77326;SDS011;66399;52.322;20.980;2023-05-07T22:53:55;17.70;;;7.10;;
77326;SDS011;66399;52.322;20.980;2023-05-07T22:58:00;12.90;;;5.80;;
77326;SDS011;66399;52.322;20.980;2023-05-07T23:02:05;13.80;;;6.30;;
77326;SDS011;66399;52.322;20.980;2023-05-07T23:06:10;13.60;;;6.70;;
77326;SDS011;66399;52.322;20.980;2023-05-07T23:10:16;14.90;;;6.90;;
77326;SDS011;66399;52.322;20.980;2023-05-07T23:14:21;14.10;;;6.50;;
77326;SDS011;66399;52.322;20.980;2023-05-07T23:18:27;11.50;;;6.00;;
77326;SDS011;66399;52.322;20.980;2023-05-07T23:22:33;15.40;;;7.00;;
77326;SDS011;66399;52.322;20.980;2023-05-07T23:26:38;15.90;;;7.00;;
77326;SDS011;66399;52.322;20.980;2023-05-07T23:30:43;16.70;;;6.80;;
77326;SDS011;66399;52.322;20.980;2023-05-07T23:34:49;17.30;;;7.00;;
77326;SDS011;66399;52.322;20.980;2023-05-07T23:38:55;15.50;;;7.60;;
77326;SDS011;66399;52.322;20.980;2023-05-07T23:43:00;15.50;;;7.20;;
77326;SDS011;66399;52.322;20.980;2023-05-07T23:47:06;16.80;;;7.00;;
77326;SDS011;66399;52.322;20.980;2023-05-07T23:51:11;15.80;;;6.40;;
77326;SDS011;66399;52.322;20.980;2023-05-07T23:55:16;14.60;;;7.20;;
77326;SDS011;66399;52.322;20.980;2023-05-07T23:59:21;16.40;;;7.10;;
